East Rochester, Ohio
Current Conditions -  °F | °C
As of 1:51 PM on Monday 20 Oct 2014 (Local Time) from KCAK Reporting Station
Overcast Overcast  
Wind Chill: 55°   Ceiling: 9000
Heat Index: 55°   Visibility: 10mi
Dew Point: 43°   Wind: 12mph
Humidity: 64%   Direction: 200°SSW
Pressure: 29.88"   Gusts: NA
Location:  40.75°N, 81.03°W
Report Text: KCAK 201751Z 20010KT 10SM SCT038 OVC090 13/06 A2988 RMK AO2 RAB28E37 SLP120 P0000 60000 T01280061 10133 20078 56021 $
Loading
Personal Weather Stations






























Interactive Weather Map
Tropical Storm Tracking
New forecast layout! Learn more

10-Day Weather Forecast

Advertisements
Track Severe Weather on mobile